ASIAQ
Weather Now
GREENLAND SURVEY
Sorting:
| Location |
Updated [WGT/WGST] |
Temperature [°C] |
Wind [m/s] |
Air pressure [hPa] |
Relative humidity [%] |
Precipitation [mm] |
| Present | Wind chill | Speed | Max |
| Qaanaaq | 04.05 05:00 | -11,2 | n/a | 0,0 ⇓ | 0,0 | 1033 | 68 | 0,0 |
| Kitsissut | 04.05 05:00 | -9,5 | -17,9 | 6,7 ⇘ | 8,2 | 1035 | 85 | n/a |
| Kitsissorsuit | 04.05 05:00 | -16,3 | -26,3 | 6,2 ⇓ | 8,2 | 1030 | 87 | n/a |
| Upernavik | 04.05 05:00 | -13,1 | -19,5 | 3,2 ⇙ | 3,9 | 1017 | 88 | 0,0 |
| Qaarsut | 04.05 05:00 | n/a | n/a | 3,6 ⇗ | n/a | 1020 | n/a | n/a |
| Nuussuaq | 03.05 22:00 | -8,9 | -16,1 | 5,1 ⇙ | 5,7 | 1028 | 57 | n/a |
| Qeqertarsuaq | 04.05 05:00 | -9,4 | -16,7 | 5,0 ⇙ | 8,7 | 1028 | 46 | 0,0 |
| Ilulissat | 04.05 05:00 | -11,8 | -17,9 | 3,2 ⇙ | 4,1 | 1026 | 59 | 0,0 |
| Qasigiannguit | 04.05 05:00 | -11,1 | -18,6 | 4,7 ⇙ | 7,6 | 1026 | 61 | 0,0 |
| Aasiaat | 04.05 05:00 | -7,9 | -16,4 | 7,7 ⇙ | 10,8 | 1024 | 59 | 0,0 |
| Kangerlussuaq | 04.05 05:00 | -6,7 | -11,3 | 2,8 ⇙ | 5,7 | 1019 | 60 | n/a |
| Sisimiut | 04.05 05:00 | -3,3 | -8,8 | 4,6 ⇐ | n/a | 1022 | 35 | 0,0 |
| Maniitsoq | 04.05 05:00 | 2,4 | n/a | 1,0 ⇐ | 1,5 | 1015 | 78 | 0,0 |
| Sioralik | 04.05 05:00 | 1,8 | n/a | n/a | n/a | 1018 | 86 | n/a |
| Niaqornaa | n/a | n/a | n/a | n/a | n/a | n/a | n/a | n/a |
| Qeqertannguaq | 04.05 05:00 | 2,1 | n/a | 1,1 ⇙ | 1,4 | n/a | 99 | n/a |
| Kapisillit | 04.05 05:00 | 1,4 | n/a | 1,1 ⇐ | 1,9 | 1009 | 100 | 0,4 |
| Kuanninnguit | n/a | n/a | n/a | n/a | n/a | n/a | n/a | n/a |
| Nuuk City | 04.05 05:00 | 1,3 | -2,0 | 3,1 ⇙ | 4,6 | 1007 | 100 | 0,0 |
| Ukiiviit | 04.05 05:00 | 1,9 | -0,9 | 2,6 ⇑ | 4,1 | 1015 | 98 | n/a |
| Paamiut | 04.05 05:00 | 2,1 | n/a | 0,0 ⇓ | 0,0 | 1013 | 100 | 0,0 |
| Narsarsuaq | 04.05 05:00 | 2,5 | n/a | 1,0 ⇙ | n/a | 1016 | 86 | n/a |
| Narsaq | 04.05 05:00 | 1,5 | n/a | 0,7 ⇙ | 2,1 | 1016 | 100 | 0,0 |
| Nunarsuit | 04.05 05:00 | 2,4 | -1,1 | 3,6 ⇖ | 4,6 | 1014 | 99 | n/a |
| Upernaviarsuk | 04.05 05:00 | 0,3 | -1,1 | 1,3 ⇓ | 6,0 | 1018 | 100 | n/a |
| Qaqortoq | 04.05 05:00 | 2,2 | 0,2 | 2,0 ⇐ | 5,5 | 1012 | 97 | 0,0 |
| Angisoq | 04.05 05:00 | 1,2 | -1,2 | 2,1 ⇙ | 3,1 | 1017 | 100 | n/a |
| Prins Christian Sund | 04.05 05:00 | -2,9 | -6,0 | 2,1 ⇖ | 3,1 | 1007 | 100 | n/a |
| Nanortalik | 04.05 05:00 | 1,3 | -3,6 | 5,6 ⇓ | 8,6 | 1017 | 98 | n/a |
| Ikermiuarsuk | 04.05 05:00 | -2,7 | n/a | 1,0 ⇓ | 3,1 | 1014 | 100 | n/a |
| Ikermit | 04.05 05:00 | 0,6 | -3,9 | 4,6 ⇖ | 5,1 | 1010 | 42 | n/a |
| Kulusuk | 03.05 20:00 | 2,6 | -0,6 | 3,3 ⇒ | 6,5 | 1012 | 38 | n/a |
| Tasiilaq | 04.05 05:00 | -0,7 | -3,7 | 2,4 ⇘ | 11,0 | 1013 | 36 | 0,0 |
| Aputiteeq | 04.05 05:00 | -5,8 | -12,2 | 5,1 ⇓ | 8,8 | 1021 | 54 | n/a |
| Ittoqqortoormiit | 04.05 05:00 | -3,6 | -9,5 | 5,1 ⇓ | 12,6 | 1013 | 54 | n/a |
| Nerlerit Inaat | n/a | n/a | n/a | n/a | n/a | n/a | n/a | n/a |
| Daneborg | 04.05 05:00 | -4,6 | -14,5 | 14,0 ⇓ | 17,0 | 1022 | 75 | n/a |
| Zackenberg | 03.05 12:00 | n/a | n/a | 6,1 ⇘ | 9,8 | n/a | n/a | n/a |
| Danmarkshavn | 04.05 05:00 | -6,2 | n/a | n/a | 16,0 | 1025 | 80 | n/a |
| Henrik Krøyer Holme | 04.05 05:00 | -8,5 | -21,4 | 20,0 ⇓ | 25,0 | 1025 | 73 | n/a |
| Station Nord | 04.05 05:00 | -10,4 | -18,8 | 6,0 ⇓ | 8,0 | 1030 | 88 | n/a |
| Kap Morris Jesup | 04.05 05:00 | -11,4 | -22,7 | 11,0 ⇒ | 14,0 | 1036 | 82 | n/a |
Advanced version ⤻
Data source - Operated by - Disclaimer ▼